Time;durP1;ratioP1;P1;durP2;ratioP2;P2;SDS_P1;SDS_P2;PMS_P1;PMS_P2;Temp;Humidity;BMP_temperature;BMP_pressure;BME280_temperature;BME280_humidity;BME280_pressure;Samples;Min_cycle;Max_cycle;Signal;HPM_P1;HPM_P2
2021/05/16 00:00:41;;;;;;;7.40;3.65;;;;;;;13.49;100.00;98512.66;1726680;81;21391;-64
2021/05/16 00:03:12;;;;;;;5.42;3.42;;;;;;;13.47;100.00;98511.84;1727686;81;21050;-65
2021/05/16 00:05:49;;;;;;;5.12;3.55;;;;;;;13.48;100.00;98512.71;1724404;81;21819;-64
2021/05/16 00:08:19;;;;;;;12.58;3.60;;;;;;;13.46;100.00;98509.23;1711447;82;21768;-64
2021/05/16 00:10:51;;;;;;;7.08;3.50;;;;;;;13.45;100.00;98512.80;1702854;83;21553;-63
2021/05/16 00:13:21;;;;;;;6.83;3.70;;;;;;;13.43;100.00;98516.81;1717423;82;20909;-64
2021/05/16 00:15:48;;;;;;;4.90;3.42;;;;;;;13.40;100.00;98512.92;1717006;81;21527;-64
2021/05/16 00:18:18;;;;;;;6.10;3.60;;;;;;;13.37;100.00;98509.03;1730133;81;21412;-64
2021/05/16 00:20:46;;;;;;;6.37;3.80;;;;;;;13.36;100.00;98507.30;1728638;82;22715;-64
2021/05/16 00:23:14;;;;;;;7.53;3.58;;;;;;;13.40;100.00;98507.63;1729515;82;21031;-65
2021/05/16 00:25:44;;;;;;;4.67;3.85;;;;;;;13.41;100.00;98502.73;1710947;82;20898;-63
2021/05/16 00:28:13;;;;;;;6.28;4.00;;;;;;;13.39;100.00;98501.05;1720068;82;21517;-64
2021/05/16 00:30:43;;;;;;;;;;;;;;;13.35;100.00;98489.66;1701426;83;21482;-65
2021/05/16 00:33:11;;;;;;;5.55;3.77;;;;;;;13.35;100.00;98496.75;1681607;84;20193;-66
2021/05/16 00:35:39;;;;;;;7.53;3.90;;;;;;;13.35;100.00;98497.61;1685351;83;20946;-65
2021/05/16 00:38:07;;;;;;;6.28;3.60;;;;;;;13.34;100.00;98503.82;1699092;83;21525;-64
2021/05/16 00:40:35;;;;;;;7.08;3.60;;;;;;;13.32;100.00;98499.48;1684429;83;21603;-65
2021/05/16 00:43:05;;;;;;;8.38;3.70;;;;;;;13.29;100.00;98493.81;1683769;83;21053;-65
2021/05/16 00:45:34;;;;;;;8.28;4.05;;;;;;;13.27;100.00;98500.93;1662714;84;21066;-64
2021/05/16 00:48:05;;;;;;;6.78;4.47;;;;;;;13.23;100.00;98495.27;1699610;82;21054;-64
2021/05/16 00:50:40;;;;;;;7.92;4.15;;;;;;;13.21;100.00;98491.34;1718301;83;21460;-65
2021/05/16 00:53:11;;;;;;;7.62;4.10;;;;;;;13.20;100.00;98491.37;1690879;83;21768;-64
2021/05/16 00:55:39;;;;;;;9.48;4.53;;;;;;;13.17;100.00;98492.33;1659002;84;20919;-64
2021/05/16 00:58:10;;;;;;;7.22;4.55;;;;;;;13.17;100.00;98492.78;1683969;83;20958;-66
2021/05/16 01:00:41;;;;;;;6.20;4.05;;;;;;;13.16;100.00;98489.69;1701178;83;21050;-65
2021/05/16 01:03:12;;;;;;;7.30;4.20;;;;;;;13.15;100.00;98491.92;1680960;83;21004;-64
2021/05/16 01:05:42;;;;;;;7.30;4.17;;;;;;;13.12;100.00;98498.63;1712168;83;21034;-66
2021/05/16 01:08:11;;;;;;;10.30;5.78;;;;;;;13.13;100.00;98498.59;1698154;83;21420;-66
2021/05/16 01:10:40;;;;;;;13.00;4.67;;;;;;;13.12;100.00;98493.34;1720369;82;20893;-66
2021/05/16 01:13:10;;;;;;;6.87;4.03;;;;;;;13.14;100.00;98491.52;1713389;82;21001;-65
2021/05/16 01:15:39;;;;;;;6.83;3.80;;;;;;;13.12;100.00;98484.06;1728452;83;21455;-65
2021/05/16 01:18:07;;;;;;;8.43;3.40;;;;;;;13.12;100.00;98483.61;1708008;82;21615;-64
2021/05/16 01:20:38;;;;;;;9.63;4.00;;;;;;;13.16;100.00;98490.56;1697523;83;21115;-64
2021/05/16 01:23:31;;;;;;;;;;;;;;;13.19;100.00;98497.59;1719624;81;20933;-63
2021/05/16 01:25:54;;;;;;;6.75;4.08;;;;;;;13.21;100.00;98493.12;1738658;81;20498;-64
2021/05/16 01:28:30;;;;;;;6.65;3.92;;;;;;;13.23;100.00;98495.27;1690531;83;21471;-64
2021/05/16 01:31:01;;;;;;;5.03;3.92;;;;;;;13.23;100.00;98494.81;1690427;83;21822;-65
2021/05/16 01:33:30;;;;;;;11.97;4.07;;;;;;;13.29;100.00;98491.16;1707883;82;21026;-66
2021/05/16 01:35:58;;;;;;;6.25;4.25;;;;;;;13.31;100.00;98493.31;1704263;83;21011;-64
2021/05/16 01:38:29;;;;;;;7.50;4.33;;;;;;;13.33;100.00;98486.19;1708131;83;20930;-64
2021/05/16 01:40:58;;;;;;;8.15;4.30;;;;;;;13.36;100.00;98487.43;1678629;83;21587;-63
2021/05/16 01:43:36;;;;;;;6.72;4.17;;;;;;;13.36;100.00;98480.81;1699079;83;21581;-63
2021/05/16 01:46:04;;;;;;;8.75;3.77;;;;;;;13.33;100.00;98483.55;1669146;84;21076;-65
2021/05/16 01:48:35;;;;;;;10.00;3.77;;;;;;;13.34;100.00;98496.33;1697807;84;20982;-66
2021/05/16 01:51:04;;;;;;;6.85;3.62;;;;;;;13.36;100.00;98490.08;1700127;84;21005;-64
2021/05/16 01:53:35;;;;;;;8.93;3.55;;;;;;;13.39;100.00;98497.07;1688031;83;20960;-65
2021/05/16 01:56:03;;;;;;;6.15;3.35;;;;;;;13.45;100.00;98491.60;1670292;84;21088;-65
2021/05/16 01:58:32;;;;;;;6.53;3.70;;;;;;;13.49;100.00;98485.30;1711392;82;20980;-65
2021/05/16 02:01:02;;;;;;;6.80;3.70;;;;;;;13.52;100.00;98478.14;1703749;82;20893;-65
2021/05/16 02:03:35;;;;;;;12.20;3.80;;;;;;;13.53;100.00;98478.55;1713480;81;21549;-65
2021/05/16 02:06:04;;;;;;;7.65;3.33;;;;;;;13.51;100.00;98470.23;1701849;82;20911;-65
2021/05/16 02:08:32;;;;;;;8.53;3.60;;;;;;;13.50;100.00;98464.06;1701877;82;21102;-65
2021/05/16 02:11:03;;;;;;;6.83;3.33;;;;;;;13.51;100.00;98472.42;1726613;82;21006;-66
2021/05/16 02:13:33;;;;;;;4.92;3.50;;;;;;;13.54;100.00;98472.79;1716316;83;21488;-65
2021/05/16 02:16:03;;;;;;;8.78;3.90;;;;;;;13.57;100.00;98479.78;1728432;82;20979;-65
2021/05/16 02:18:31;;;;;;;6.12;3.70;;;;;;;13.55;100.00;98475.39;1735472;81;21459;-65
2021/05/16 02:21:01;;;;;;;5.67;3.35;;;;;;;13.55;100.00;98478.50;1749494;81;21251;-65
2021/05/16 02:23:30;;;;;;;7.72;3.67;;;;;;;13.55;100.00;98481.16;1754623;81;20929;-65
2021/05/16 02:25:57;;;;;;;6.90;3.80;;;;;;;13.58;100.00;98475.77;1739108;81;21027;-65
2021/05/16 02:28:26;;;;;;;8.40;3.90;;;;;;;13.57;100.00;98477.13;1742085;81;20996;-66
2021/05/16 02:30:56;;;;;;;12.78;3.95;;;;;;;13.58;100.00;98484.17;1755760;81;20905;-65
2021/05/16 02:33:24;;;;;;;7.30;3.65;;;;;;;13.59;100.00;98489.88;1733088;81;21630;-66
2021/05/16 02:35:52;;;;;;;5.25;3.45;;;;;;;13.61;100.00;98488.06;1714497;81;20940;-66
2021/05/16 02:38:24;;;;;;;10.85;3.72;;;;;;;13.64;100.00;98490.16;1690013;84;21493;-66
2021/05/16 02:40:53;;;;;;;7.45;3.72;;;;;;;13.65;100.00;98491.03;1677539;84;20982;-66
2021/05/16 02:43:21;;;;;;;5.92;3.75;;;;;;;13.66;100.00;98497.61;1697496;83;21523;-66
2021/05/16 02:45:52;;;;;;;6.67;3.70;;;;;;;13.67;100.00;98494.50;1663980;84;21665;-66
2021/05/16 02:48:22;;;;;;;4.97;3.12;;;;;;;13.66;100.00;98493.63;1682110;84;20968;-67
2021/05/16 02:50:51;;;;;;;7.30;3.50;;;;;;;13.67;100.00;98495.83;1664868;84;20977;-66
2021/05/16 02:53:20;;;;;;;10.30;3.70;;;;;;;13.68;100.00;98497.11;1696351;82;21418;-65
2021/05/16 02:55:59;;;;;;;4.28;3.20;;;;;;;13.70;100.00;98497.94;1692506;83;20929;-66
2021/05/16 02:58:27;;;;;;;9.53;3.42;;;;;;;13.69;100.00;98497.52;1686485;83;21083;-64
2021/05/16 03:01:00;;;;;;;6.78;3.10;;;;;;;13.72;100.00;98497.47;1690400;83;20946;-65
2021/05/16 03:03:29;;;;;;;5.60;2.75;;;;;;;13.70;100.00;98497.06;1713160;82;21603;-65
2021/05/16 03:05:58;;;;;;;5.33;3.15;;;;;;;13.70;100.00;98501.91;1711759;82;21040;-65
2021/05/16 03:08:26;;;;;;;5.75;3.20;;;;;;;13.68;100.00;98501.08;1710876;82;21557;-64
2021/05/16 03:10:56;;;;;;;6.10;3.60;;;;;;;13.66;100.00;98496.74;1700971;82;21620;-67
2021/05/16 03:13:25;;;;;;;9.63;3.60;;;;;;;13.64;100.00;98495.92;1668344;83;20937;-64
2021/05/16 03:15:52;;;;;;;7.40;3.33;;;;;;;13.62;100.00;98491.12;1693436;83;20909;-65
2021/05/16 03:18:22;;;;;;;5.08;3.47;;;;;;;13.62;100.00;98493.31;1724910;82;21017;-65
2021/05/16 03:20:49;;;;;;;10.10;4.20;;;;;;;13.66;100.00;98494.09;1725005;83;21519;-65
2021/05/16 03:23:17;;;;;;;8.78;4.03;;;;;;;13.69;100.00;98494.88;1728193;81;21047;-67
2021/05/16 03:25:45;;;;;;;6.03;4.25;;;;;;;13.73;100.00;98493.90;1703203;83;21004;-64
2021/05/16 03:28:14;;;;;;;9.00;4.62;;;;;;;13.78;100.00;98503.05;1718004;82;20888;-65
2021/05/16 03:30:41;;;;;;;4.33;2.95;;;;;;;13.82;100.00;98502.04;1722414;82;21507;-65
2021/05/16 03:33:09;;;;;;;4.45;3.00;;;;;;;13.89;100.00;98494.77;1700296;83;20954;-65
2021/05/16 03:35:36;;;;;;;7.20;3.55;;;;;;;13.93;100.00;98491.11;1690840;84;21060;-65
2021/05/16 03:38:04;;;;;;;6.70;3.77;;;;;;;13.99;100.00;98498.42;1686567;84;20967;-65
2021/05/16 03:40:31;;;;;;;4.92;3.67;;;;;;;14.04;100.00;98500.48;1695354;84;20958;-65
2021/05/16 03:42:59;;;;;;;8.05;3.72;;;;;;;14.11;100.00;98506.00;1694231;83;21036;-64
2021/05/16 03:45:30;;;;;;;8.65;4.08;;;;;;;14.16;100.00;98501.42;1709931;82;20922;-65
2021/05/16 03:47:57;;;;;;;8.80;4.22;;;;;;;14.24;100.00;98501.22;1702386;82;21065;-63
2021/05/16 03:50:25;;;;;;;6.20;3.52;;;;;;;14.29;100.00;98497.97;1710404;83;21510;-63
2021/05/16 03:52:52;;;;;;;4.83;3.12;;;;;;;14.34;100.00;98507.97;1700209;82;20988;-63
2021/05/16 03:55:21;;;;;;;8.83;3.02;;;;;;;14.37;100.00;98509.66;1709099;83;21028;-63
2021/05/16 03:57:50;;;;;;;5.67;2.80;;;;;;;14.37;100.00;98505.22;1711075;83;20952;-63
2021/05/16 04:00:19;;;;;;;5.60;3.10;;;;;;;14.40;100.00;98502.94;1705970;83;21685;-64
2021/05/16 04:02:47;;;;;;;8.28;3.12;;;;;;;14.42;100.00;98506.41;1705426;82;21049;-63
2021/05/16 04:05:15;;;;;;;5.35;3.10;;;;;;;14.43;100.00;98505.06;1715844;82;21428;-63
2021/05/16 04:07:45;;;;;;;8.30;2.67;;;;;;;14.48;100.00;98502.27;1726493;82;20964;-65
2021/05/16 04:10:13;;;;;;;4.85;2.58;;;;;;;14.52;100.00;98506.55;1691313;82;20941;-66
2021/05/16 04:12:41;;;;;;;6.15;3.30;;;;;;;14.60;100.00;98503.65;1727134;82;21050;-66
2021/05/16 04:15:10;;;;;;;22.55;3.75;;;;;;;14.69;100.00;98511.34;1711818;82;21500;-66
2021/05/16 04:17:37;;;;;;;6.47;2.70;;;;;;;14.77;100.00;98506.65;1701706;84;21072;-66
2021/05/16 04:20:06;;;;;;;3.02;2.37;;;;;;;14.85;100.00;98496.64;1698956;84;20985;-66
2021/05/16 04:22:33;;;;;;;3.20;2.25;;;;;;;14.96;100.00;98498.47;1704492;84;20941;-66
2021/05/16 04:25:00;;;;;;;3.58;2.10;;;;;;;15.07;100.00;98492.33;1725451;83;21037;-66
2021/05/16 04:27:28;;;;;;;8.08;2.08;;;;;;;15.19;100.00;98491.06;1716613;83;20930;-65
2021/05/16 04:29:55;;;;;;;3.08;2.00;;;;;;;15.30;100.00;98492.87;1723951;82;20964;-66
2021/05/16 04:32:22;;;;;;;32.15;2.70;;;;;;;15.38;100.00;98493.92;1710091;82;20990;-65
2021/05/16 04:34:50;;;;;;;4.83;1.85;;;;;;;15.47;100.00;98496.72;1691877;82;21044;-65
2021/05/16 04:37:17;;;;;;;2.67;1.67;;;;;;;15.53;100.00;98489.84;1701793;84;21041;-66
2021/05/16 04:39:44;;;;;;;28.30;2.70;;;;;;;15.60;100.00;98494.05;1708447;82;21506;-65
2021/05/16 04:42:12;;;;;;;6.03;1.77;;;;;;;15.65;100.00;98494.78;1707658;82;21097;-66
2021/05/16 04:44:39;;;;;;;4.25;1.62;;;;;;;15.71;100.00;98491.42;1697749;82;21046;-66
2021/05/16 04:47:09;;;;;;;3.98;1.70;;;;;;;15.79;100.00;98498.25;1714528;82;21019;-66
2021/05/16 04:49:37;;;;;;;4.12;1.77;;;;;;;15.86;100.00;98501.08;1722354;82;21727;-66
2021/05/16 04:52:05;;;;;;;6.08;2.20;;;;;;;15.94;100.00;98500.33;1708445;82;20912;-66
2021/05/16 04:54:32;;;;;;;3.22;1.80;;;;;;;15.98;100.00;98501.48;1712504;82;21398;-66
2021/05/16 04:57:00;;;;;;;3.45;1.82;;;;;;;16.05;100.00;98508.77;1717564;82;20999;-66
2021/05/16 04:59:28;;;;;;;2.62;1.70;;;;;;;16.13;100.00;98500.52;1714520;82;20947;-66
2021/05/16 05:01:55;;;;;;;4.87;2.00;;;;;;;16.25;100.00;98502.70;1718388;82;21064;-66
2021/05/16 05:04:22;;;;;;;4.22;2.08;;;;;;;16.35;100.00;98500.95;1708394;82;20960;-66
2021/05/16 05:06:50;;;;;;;3.42;1.67;;;;;;;16.47;100.00;98504.91;1704266;82;20999;-66
2021/05/16 05:09:17;;;;;;;3.52;2.12;;;;;;;16.65;100.00;98508.22;1703660;83;20909;-66
2021/05/16 05:11:44;;;;;;;3.25;2.08;;;;;;;16.77;100.00;98514.84;1730666;81;20925;-66
2021/05/16 05:14:11;;;;;;;5.95;2.50;;;;;;;16.85;100.00;98506.06;1722291;83;21661;-66
2021/05/16 05:16:40;;;;;;;6.37;2.00;;;;;;;16.92;100.00;98512.88;1712796;82;20934;-66
2021/05/16 05:19:07;;;;;;;8.85;2.27;;;;;;;17.02;100.00;98513.81;1711819;82;20915;-66
2021/05/16 05:21:34;;;;;;;3.72;2.52;;;;;;;17.05;100.00;98507.06;1708485;82;20943;-66
2021/05/16 05:24:01;;;;;;;4.30;2.00;;;;;;;17.05;100.00;98516.38;1715100;83;20951;-66
2021/05/16 05:26:30;;;;;;;3.60;2.45;;;;;;;17.08;100.00;98510.45;1730512;81;21138;-65
2021/05/16 05:28:58;;;;;;;11.57;2.77;;;;;;;17.14;100.00;98510.66;1741917;81;21560;-66
2021/05/16 05:31:25;;;;;;;4.12;2.45;;;;;;;17.22;100.00;98506.73;1750165;81;21021;-67
2021/05/16 05:33:53;;;;;;;6.62;2.10;;;;;;;17.26;100.00;98508.33;1740988;81;20924;-66
2021/05/16 05:36:20;;;;;;;4.97;2.10;;;;;;;17.36;100.00;98507.47;1729270;81;21492;-66
2021/05/16 05:38:47;;;;;;;7.17;2.15;;;;;;;17.47;100.00;98506.99;1728066;82;21052;-66
2021/05/16 05:41:16;;;;;;;5.50;2.22;;;;;;;17.62;100.00;98495.67;1712850;82;21413;-66
2021/05/16 05:43:43;;;;;;;3.08;1.65;;;;;;;17.76;100.00;98497.28;1693008;83;20920;-64
2021/05/16 05:46:11;;;;;;;8.20;1.98;;;;;;;17.89;100.00;98506.92;1703267;84;20942;-66
2021/05/16 05:48:39;;;;;;;3.12;1.80;;;;;;;18.02;100.00;98503.25;1703081;83;20884;-67
2021/05/16 05:51:07;;;;;;;2.95;1.57;;;;;;;18.15;100.00;98501.27;1714646;82;21573;-65
2021/05/16 05:53:36;;;;;;;2.37;1.62;;;;;;;18.29;100.00;98503.28;1710316;82;21055;-66
2021/05/16 05:56:03;;;;;;;4.05;1.65;;;;;;;18.40;100.00;98499.63;1690616;82;20968;-68
2021/05/16 05:58:33;;;;;;;3.67;1.90;;;;;;;18.55;100.00;98495.38;1690465;83;20943;-65
2021/05/16 06:01:00;;;;;;;7.00;2.00;;;;;;;18.66;100.00;98497.09;1693263;84;20928;-65
2021/05/16 06:03:27;;;;;;;4.40;2.10;;;;;;;18.82;100.00;98494.52;1683630;83;21037;-65
2021/05/16 06:05:54;;;;;;;3.98;1.70;;;;;;;18.96;100.00;98496.53;1693425;84;20943;-64
2021/05/16 06:08:22;;;;;;;3.85;1.60;;;;;;;19.06;100.00;98490.64;1701393;83;20927;-65
2021/05/16 06:10:49;;;;;;;4.92;1.80;;;;;;;19.14;100.00;98488.91;1698743;83;21070;-67
2021/05/16 06:13:17;;;;;;;4.42;1.82;;;;;;;19.25;100.00;98487.89;1701178;84;20967;-63
2021/05/16 06:15:44;;;;;;;3.62;1.57;;;;;;;19.34;100.00;98485.21;1699427;83;21042;-67
2021/05/16 06:18:12;;;;;;;3.15;1.40;;;;;;;19.44;100.00;98488.69;1706483;82;21478;-68
2021/05/16 06:20:39;;;;;;;3.67;1.55;;;;;;;19.54;100.00;98479.73;1708557;82;21418;-67
2021/05/16 06:23:11;;;;;;;3.60;1.50;;;;;;;19.68;100.00;98479.87;1720201;82;21000;-67
2021/05/16 06:25:37;;;;;;;9.88;1.75;;;;;;;19.80;100.00;98471.65;1711112;82;21116;-67
2021/05/16 06:28:04;;;;;;;4.03;1.57;;;;;;;19.91;100.00;98466.61;1707246;83;21040;-67
2021/05/16 06:30:33;;;;;;;3.40;1.47;;;;;;;20.05;100.00;98464.51;1707011;82;21091;-67
2021/05/16 06:33:00;;;;;;;5.50;1.62;;;;;;;20.22;100.00;98471.60;1708025;82;20971;-67
2021/05/16 06:35:27;;;;;;;4.53;1.55;;;;;;;20.33;100.00;98466.03;1700183;83;20956;-68
2021/05/16 06:37:55;;;;;;;5.70;2.22;;;;;;;20.48;100.00;98475.55;1696730;83;20914;-67
2021/05/16 06:40:22;;;;;;;5.50;1.67;;;;;;;20.59;100.00;98470.44;1707641;84;21052;-67
2021/05/16 06:42:50;;;;;;;3.70;1.50;;;;;;;20.71;100.00;98469.73;1700322;83;20920;-68
2021/05/16 06:45:17;;;;;;;23.75;2.10;;;;;;;20.84;100.00;98472.59;1693162;83;20929;-65
2021/05/16 06:47:44;;;;;;;3.52;1.30;;;;;;;20.93;100.00;98465.34;1703546;82;20953;-67
2021/05/16 06:50:12;;;;;;;48.35;3.77;;;;;;;20.99;100.00;98464.98;1702235;83;20953;-67
2021/05/16 06:52:39;;;;;;;3.08;1.00;;;;;;;21.08;100.00;98466.25;1701571;83;21045;-65
2021/05/16 06:55:08;;;;;;;4.53;1.50;;;;;;;21.15;100.00;98461.77;1705269;82;20965;-67
2021/05/16 06:57:35;;;;;;;85.00;5.05;;;;;;;21.24;100.00;98453.69;1715591;82;21026;-69
2021/05/16 07:00:04;;;;;;;2.98;1.30;;;;;;;21.34;100.00;98457.56;1704190;82;20961;-67
2021/05/16 07:02:31;;;;;;;3.95;0.95;;;;;;;21.45;100.00;98462.27;1708363;82;20972;-67
2021/05/16 07:04:59;;;;;;;2.92;1.00;;;;;;;21.54;100.00;98459.02;1725471;82;21164;-67
2021/05/16 07:07:26;;;;;;;6.00;1.20;;;;;;;21.58;100.00;98457.41;1699044;83;20958;-68
2021/05/16 07:09:54;;;;;;;4.80;1.12;;;;;;;21.64;100.00;98459.70;1693385;82;20902;-68
2021/05/16 07:12:21;;;;;;;1.72;0.98;;;;;;;21.66;100.00;98459.13;1724527;82;21515;-67
2021/05/16 07:14:48;;;;;;;3.40;0.95;;;;;;;21.73;100.00;98456.06;1699548;82;20890;-67
2021/05/16 07:17:16;;;;;;;3.10;1.40;;;;;;;21.80;100.00;98460.98;1695330;83;21092;-67
2021/05/16 07:19:43;;;;;;;19.85;2.20;;;;;;;21.89;100.00;98459.06;1712513;83;21091;-66
2021/05/16 07:22:10;;;;;;;2.85;1.10;;;;;;;21.99;100.00;98456.18;1714503;82;21000;-66
2021/05/16 07:24:39;;;;;;;7.20;1.25;;;;;;;22.12;100.00;98455.42;1711787;83;21009;-67
2021/05/16 07:27:08;;;;;;;3.80;1.10;;;;;;;22.23;100.00;98454.26;1718401;82;21575;-67
2021/05/16 07:29:35;;;;;;;1.42;0.90;;;;;;;22.32;100.00;98458.20;1694764;83;21987;-67
2021/05/16 07:32:02;;;;;;;7.35;1.25;;;;;;;22.40;100.00;98459.43;1700337;83;20981;-67
2021/05/16 07:34:29;;;;;;;3.85;1.02;;;;;;;22.51;100.00;98458.25;1710584;81;20952;-66
2021/05/16 07:36:57;;;;;;;2.55;0.80;;;;;;;22.60;100.00;98460.81;1705436;82;20939;-64
2021/05/16 07:39:25;;;;;;;3.37;0.80;;;;;;;22.68;100.00;98462.98;1691262;82;20903;-71
2021/05/16 07:41:55;;;;;;;3.20;0.93;;;;;;;22.78;99.84;98457.41;1715550;82;21047;-71
2021/05/16 07:44:22;;;;;;;2.75;0.93;;;;;;;22.88;100.00;98464.80;1698541;82;20962;-69
2021/05/16 07:46:50;;;;;;;2.30;1.00;;;;;;;22.98;98.14;98461.00;1704292;82;20967;-69
2021/05/16 07:49:17;;;;;;;1.82;1.10;;;;;;;23.06;98.77;98463.17;1704627;82;20976;-65
2021/05/16 07:51:44;;;;;;;2.62;0.90;;;;;;;23.16;97.01;98458.41;1686907;84;21063;-66
2021/05/16 07:54:12;;;;;;;5.50;1.07;;;;;;;23.26;97.28;98460.50;1704632;82;21605;-65
2021/05/16 07:56:39;;;;;;;8.13;1.00;;;;;;;23.31;93.89;98461.05;1708653;82;20955;-66
2021/05/16 07:59:06;;;;;;;2.50;0.90;;;;;;;23.37;93.01;98459.27;1688059;83;21483;-67
2021/05/16 08:01:34;;;;;;;2.15;0.80;;;;;;;23.43;93.28;98458.36;1716221;83;21056;-67
2021/05/16 08:04:01;;;;;;;5.25;0.90;;;;;;;23.52;92.19;98454.17;1718617;83;21039;-65
2021/05/16 08:06:28;;;;;;;7.25;1.02;;;;;;;23.60;89.32;98452.31;1721824;82;21042;-70
2021/05/16 08:08:56;;;;;;;7.70;1.37;;;;;;;23.59;84.39;98450.11;1729583;81;20917;-70
2021/05/16 08:11:24;;;;;;;7.60;0.78;;;;;;;23.60;82.90;98459.05;1734018;81;20936;-67
2021/05/16 08:13:52;;;;;;;3.90;0.90;;;;;;;23.63;84.74;98445.38;1728489;81;20932;-71
2021/05/16 08:16:19;;;;;;;4.45;1.02;;;;;;;23.73;85.73;98450.03;1718493;81;21032;-64
2021/05/16 08:18:48;;;;;;;3.52;0.80;;;;;;;23.77;85.59;98454.72;1713944;83;21040;-65
2021/05/16 08:21:16;;;;;;;2.33;0.93;;;;;;;23.82;82.52;98454.77;1711378;82;20961;-67
2021/05/16 08:23:43;;;;;;;3.90;0.60;;;;;;;23.85;83.08;98448.30;1687526;83;21032;-72
2021/05/16 08:26:11;;;;;;;9.80;0.72;;;;;;;23.89;84.16;98447.11;1682435;83;21046;-68
2021/05/16 08:28:38;;;;;;;5.15;0.47;;;;;;;23.96;77.29;98447.53;1717935;82;20873;-68
2021/05/16 08:31:05;;;;;;;7.10;0.82;;;;;;;23.97;62.39;98441.17;1710885;82;21604;-65
2021/05/16 08:33:33;;;;;;;9.73;0.50;;;;;;;23.97;57.63;98437.13;1689838;83;20897;-69
2021/05/16 08:36:00;;;;;;;6.00;0.62;;;;;;;23.96;55.78;98440.80;1692009;83;21455;-69
2021/05/16 08:38:27;;;;;;;39.13;2.33;;;;;;;23.95;56.77;98435.03;1689419;83;20983;-68
2021/05/16 08:40:54;;;;;;;9.95;1.22;;;;;;;24.01;57.20;98438.14;1697977;82;20976;-64
2021/05/16 08:43:22;;;;;;;1.40;0.62;;;;;;;24.08;56.05;98434.03;1703633;82;21043;-66
2021/05/16 08:45:49;;;;;;;1.25;0.50;;;;;;;24.17;54.06;98428.49;1703624;82;21471;-66
2021/05/16 08:48:17;;;;;;;2.05;0.50;;;;;;;24.21;54.70;98435.38;1684199;83;21111;-66
2021/05/16 08:50:44;;;;;;;1.57;0.80;;;;;;;24.25;55.17;98436.02;1694211;83;21027;-66
2021/05/16 08:53:11;;;;;;;2.90;0.40;;;;;;;24.31;55.52;98439.64;1709244;82;20973;-67
2021/05/16 08:55:40;;;;;;;2.20;0.50;;;;;;;24.31;54.06;98440.50;1704023;84;21096;-67
2021/05/16 08:58:08;;;;;;;10.95;0.80;;;;;;;24.31;54.36;98433.77;1717569;82;21530;-66
2021/05/16 09:00:46;;;;;;;10.70;1.05;;;;;;;24.42;57.40;98438.36;1712758;82;20924;-68
2021/05/16 09:03:17;;;;;;;2.52;0.30;;;;;;;24.53;57.88;98443.82;1695543;82;21583;-69
2021/05/16 09:05:47;;;;;;;5.50;0.50;;;;;;;24.62;56.45;98438.27;1708552;83;21412;-69
2021/05/16 09:08:23;;;;;;;26.37;1.25;;;;;;;24.69;55.03;98427.39;1710697;83;21038;-68
2021/05/16 09:10:56;;;;;;;5.47;0.57;;;;;;;24.74;54.51;98428.77;1711338;82;21079;-69
2021/05/16 09:13:31;;;;;;;126.40;5.03;;;;;;;24.74;52.88;98431.46;1689081;82;20987;-67
2021/05/16 09:16:05;;;;;;;2.30;0.50;;;;;;;24.75;52.50;98430.97;1691000;82;20927;-71
2021/05/16 09:18:50;;;;;;;98.15;5.15;;;;;;;24.80;52.40;98434.19;1711052;83;21537;-73
2021/05/16 09:21:32;;;;;;;5.40;0.78;;;;;;;24.85;52.76;98431.14;1715989;82;21062;-71
2021/05/16 09:24:07;;;;;;;9.95;1.12;;;;;;;24.90;52.35;98428.95;1708230;83;20953;-73
2021/05/16 09:27:00;;;;;;;2.85;0.60;;;;;;;24.90;50.68;98417.67;1710662;83;21023;-72
2021/05/16 09:29:43;;;;;;;3.55;0.55;;;;;;;24.97;51.66;98421.63;1709298;82;21091;-73
2021/05/16 09:32:10;;;;;;;1.32;0.50;;;;;;;25.04;54.34;98420.20;1719559;82;20876;-73
2021/05/16 09:34:39;;;;;;;5.47;0.65;;;;;;;25.18;54.73;98407.52;1711816;83;21563;-74
2021/05/16 09:37:07;;;;;;;4.60;0.80;;;;;;;25.30;53.07;98407.42;1716881;83;20889;-60
2021/05/16 09:39:35;;;;;;;15.08;0.47;;;;;;;25.37;50.93;98414.06;1698096;82;21013;-75
2021/05/16 09:42:13;;;;;;;15.48;1.32;;;;;;;25.40;48.87;98411.61;1696844;83;20955;-72
2021/05/16 09:44:48;;;;;;;22.80;1.32;;;;;;;25.36;47.29;98409.64;1683877;83;21089;-72
2021/05/16 09:47:23;;;;;;;143.95;7.62;;;;;;;25.27;47.29;98404.10;1693390;83;21076;-72
2021/05/16 09:49:55;;;;;;;25.02;1.72;;;;;;;25.12;48.54;98398.55;1699094;83;20975;-71
2021/05/16 09:52:33;;;;;;;0.98;0.60;;;;;;;25.02;49.59;98397.88;1705204;83;20993;-73
2021/05/16 09:55:14;;;;;;;3.37;0.50;;;;;;;25.02;51.00;98395.67;1709066;83;20982;-69
2021/05/16 09:57:43;;;;;;;30.65;2.17;;;;;;;25.11;52.21;98392.29;1705939;83;20969;-70
2021/05/16 10:00:16;;;;;;;0.60;0.50;;;;;;;25.22;52.34;98390.97;1696570;83;21113;-70
2021/05/16 10:02:43;;;;;;;79.58;4.30;;;;;;;25.19;49.47;98390.34;1708362;82;20961;-69
2021/05/16 10:05:14;;;;;;;6.15;0.60;;;;;;;25.00;47.52;98379.59;1698798;82;20955;-70
2021/05/16 10:07:41;;;;;;;2.05;0.50;;;;;;;24.85;47.90;98390.19;1703041;82;21028;-69
2021/05/16 10:10:13;;;;;;;0.57;0.42;;;;;;;24.80;46.29;98382.45;1709551;82;20929;-69
2021/05/16 10:12:41;;;;;;;2.17;0.50;;;;;;;24.79;47.65;98385.26;1705463;82;21467;-69
2021/05/16 10:15:19;;;;;;;20.52;1.50;;;;;;;24.78;49.71;98381.70;1707323;82;21531;-69
2021/05/16 10:17:49;;;;;;;1.10;0.50;;;;;;;24.87;53.52;98379.28;1706498;82;21595;-69
2021/05/16 10:20:20;;;;;;;4.75;0.65;;;;;;;24.94;54.23;98368.38;1713366;82;20934;-70
2021/05/16 10:23:07;;;;;;;2.22;0.42;;;;;;;24.98;54.96;98369.41;1718803;83;21499;-70
2021/05/16 10:25:48;;;;;;;2.67;0.60;;;;;;;25.13;57.29;98366.05;1721181;82;21060;-70
2021/05/16 10:28:16;;;;;;;;;;;;;;;25.21;54.91;98364.95;1718555;83;21101;-69
2021/05/16 10:31:11;;;;;;;2.70;0.50;;;;;;;25.15;52.48;98367.27;1721257;82;20185;-69
2021/05/16 10:33:39;;;;;;;1.60;0.65;;;;;;;25.17;54.75;98362.62;1724020;82;20965;-69
2021/05/16 10:36:07;;;;;;;1.62;0.40;;;;;;;25.31;55.85;98352.45;1717305;82;20932;-73
2021/05/16 10:38:42;;;;;;;4.17;0.70;;;;;;;25.48;55.69;98346.20;1720329;82;21050;-73
2021/05/16 10:42:39;;;;;;;1.75;0.40;;;;;;;25.88;52.66;98349.32;1808058;78;22023;-73
2021/05/16 10:45:17;;;;;;;1.65;0.40;;;;;;;25.99;50.20;98346.11;1775617;80;20870;-73
2021/05/16 10:47:54;;;;;;;6.22;0.93;;;;;;;26.03;47.08;98344.91;1778431;80;21996;-73
2021/05/16 10:50:33;;;;;;;5.30;0.60;;;;;;;25.97;46.67;98350.78;1745809;81;21624;-65
2021/05/16 10:53:16;;;;;;;7.58;0.60;;;;;;;25.84;44.92;98347.85;1713869;82;21096;-63
2021/05/16 10:55:49;;;;;;;3.25;0.60;;;;;;;25.70;46.55;98343.08;1741691;81;20981;-66
2021/05/16 10:58:36;;;;;;;1.95;0.50;;;;;;;25.72;48.31;98339.76;1726878;82;20937;-65
2021/05/16 11:01:30;;;;;;;11.45;0.78;;;;;;;25.77;49.20;98339.38;1725284;82;21132;-69
2021/05/16 11:04:01;;;;;;;1.92;0.60;;;;;;;25.88;47.36;98343.91;1727831;82;21041;-69
2021/05/16 11:06:42;;;;;;;2.58;0.70;;;;;;;25.98;47.69;98334.94;1727438;82;20988;-69
2021/05/16 11:09:13;;;;;;;3.62;0.40;;;;;;;25.89;44.82;98333.48;1727626;82;21024;-70
2021/05/16 11:11:55;;;;;;;5.00;0.40;;;;;;;25.70;43.99;98327.36;1714008;83;21554;-69
2021/05/16 11:14:29;;;;;;;3.30;0.40;;;;;;;25.50;42.30;98324.84;1744479;80;21083;-69
2021/05/16 11:17:02;;;;;;;2.45;0.30;;;;;;;25.36;42.22;98314.30;1725183;82;20930;-68
2021/05/16 11:19:32;;;;;;;133.57;7.83;;;;;;;25.37;43.36;98316.87;1727945;82;20989;-69
2021/05/16 11:22:15;;;;;;;2.37;0.50;;;;;;;25.39;43.66;98302.77;1726945;82;20997;-69
2021/05/16 11:24:51;;;;;;;0.62;0.30;;;;;;;25.51;44.73;98306.31;1729003;82;20949;-70
2021/05/16 11:27:29;;;;;;;3.85;0.45;;;;;;;25.63;44.92;98297.25;1732167;82;21103;-68
2021/05/16 11:30:00;;;;;;;6.17;0.70;;;;;;;25.79;44.50;98294.19;1732940;82;20910;-69
2021/05/16 11:32:30;;;;;;;0.90;0.40;;;;;;;25.97;44.34;98285.92;1725630;82;20936;-69
2021/05/16 11:35:03;;;;;;;4.90;0.85;;;;;;;26.13;43.83;98275.22;1727626;82;20942;-69
2021/05/16 11:37:31;;;;;;;3.55;0.53;;;;;;;26.29;44.67;98281.06;1724982;82;20917;-69
2021/05/16 11:40:23;;;;;;;2.47;0.47;;;;;;;26.37;40.83;98270.98;1713291;83;21067;-69